createdAt,value
2022-09-23T00:01:22.811Z,6.56
2022-09-23T00:03:50.312Z,6.56
2022-09-23T00:06:21.753Z,6.50
2022-09-23T00:08:50.167Z,6.63
2022-09-23T00:11:26.252Z,6.81
2022-09-23T00:13:58.973Z,6.63
2022-09-23T00:16:32.658Z,6.69
2022-09-23T00:19:01.402Z,6.63
2022-09-23T00:21:29.418Z,6.38
2022-09-23T00:23:57.107Z,6.44
2022-09-23T00:26:25.012Z,6.50
2022-09-23T00:28:52.610Z,6.44
2022-09-23T00:31:24.678Z,6.38
2022-09-23T00:33:58.834Z,6.00
2022-09-23T00:36:27.286Z,6.13
2022-09-23T00:38:55.415Z,6.06
2022-09-23T00:41:23.526Z,6.31
2022-09-23T00:43:57.892Z,6.13
2022-09-23T00:46:37.758Z,6.25
2022-09-23T00:49:15.975Z,6.38
2022-09-23T00:51:54.213Z,5.94
2022-09-23T00:54:25.121Z,6.13
2022-09-23T00:56:52.542Z,6.00
2022-09-23T00:59:21.745Z,6.06
2022-09-23T01:01:51.527Z,6.06
2022-09-23T01:04:19.333Z,5.88
2022-09-23T01:06:46.568Z,6.13
2022-09-23T01:09:13.697Z,6.00
2022-09-23T01:12:22.740Z,6.19
2022-09-23T01:15:19.197Z,6.38
2022-09-23T01:18:25.794Z,6.25
2022-09-23T01:21:08.014Z,5.88
2022-09-23T01:24:26.886Z,5.94
2022-09-23T01:27:00.083Z,5.88
2022-09-23T01:30:10.106Z,5.63
2022-09-23T01:32:55.881Z,5.81
2022-09-23T01:35:59.432Z,5.88
2022-09-23T01:39:01.251Z,6.13
2022-09-23T01:42:25.516Z,6.13
2022-09-23T01:45:07.327Z,5.69
2022-09-23T01:47:49.039Z,6.06
2022-09-23T01:50:42.730Z,6.13
2022-09-23T01:53:22.583Z,6.19
2022-09-23T01:55:57.312Z,6.19
2022-09-23T01:58:45.677Z,5.81
2022-09-23T02:01:21.761Z,5.81
2022-09-23T02:04:11.570Z,5.75
2022-09-23T02:06:51.151Z,5.88
2022-09-23T02:09:26.083Z,6.06
2022-09-23T02:12:01.399Z,6.06
2022-09-23T02:14:59.633Z,6.06
2022-09-23T02:17:49.198Z,6.13
2022-09-23T02:20:24.137Z,6.06
2022-09-23T02:23:08.735Z,6.06
2022-09-23T02:26:19.968Z,6.25
2022-09-23T02:28:57.497Z,5.69
2022-09-23T02:31:39.634Z,6.06
2022-09-23T02:34:16.352Z,6.13
2022-09-23T02:37:03.206Z,5.88
2022-09-23T02:39:58.906Z,5.81
2022-09-23T02:42:41.986Z,5.88
2022-09-23T02:45:09.342Z,6.00
2022-09-23T02:47:42.182Z,6.06
2022-09-23T02:50:09.870Z,6.06
2022-09-23T02:52:38.121Z,5.94
2022-09-23T02:55:09.270Z,5.56
2022-09-23T02:57:36.570Z,5.56
2022-09-23T03:00:06.342Z,5.81
2022-09-23T03:03:11.604Z,5.81
2022-09-23T03:05:54.220Z,5.81
2022-09-23T03:08:53.951Z,5.63
2022-09-23T03:11:21.784Z,5.63
2022-09-23T03:14:07.246Z,5.31
2022-09-23T03:17:29.538Z,5.50
2022-09-23T03:20:06.194Z,5.63
2022-09-23T03:22:44.845Z,5.56
2022-09-23T03:25:24.001Z,5.56
2022-09-23T03:27:58.484Z,5.50
2022-09-23T03:30:26.557Z,5.56
2022-09-23T03:32:56.640Z,5.75
2022-09-23T03:35:28.013Z,5.50
2022-09-23T03:38:10.234Z,5.69
2022-09-23T03:40:44.097Z,5.75
2022-09-23T03:43:13.916Z,5.63
2022-09-23T03:45:42.643Z,5.69
2022-09-23T03:48:10.065Z,5.69
2022-09-23T03:50:39.247Z,5.75
2022-09-23T03:53:06.980Z,5.69
2022-09-23T03:55:34.935Z,5.56
2022-09-23T03:58:02.469Z,5.38
2022-09-23T04:00:29.727Z,5.50
2022-09-23T04:02:59.985Z,5.38
2022-09-23T04:05:27.217Z,5.31
2022-09-23T04:07:54.979Z,5.63
2022-09-23T04:10:22.227Z,5.25
2022-09-23T04:12:49.394Z,5.19
2022-09-23T04:15:16.639Z,5.38
2022-09-23T04:17:43.842Z,5.69
2022-09-23T04:20:11.002Z,5.75
2022-09-23T04:22:38.747Z,5.69
2022-09-23T04:25:06.695Z,5.44
2022-09-23T04:27:37.633Z,5.44
2022-09-23T04:30:06.419Z,5.63
2022-09-23T04:32:33.738Z,5.25
2022-09-23T04:35:00.946Z,5.38
2022-09-23T04:37:28.211Z,5.25
2022-09-23T04:39:56.579Z,5.50
2022-09-23T04:42:24.012Z,5.25
2022-09-23T04:44:51.220Z,5.13
2022-09-23T04:47:19.385Z,5.25
2022-09-23T04:49:46.626Z,5.13
2022-09-23T04:52:13.807Z,5.00
2022-09-23T04:54:41.750Z,5.00
2022-09-23T04:57:11.152Z,4.94
2022-09-23T04:59:38.392Z,5.00
2022-09-23T05:02:05.628Z,4.94
2022-09-23T05:04:32.828Z,5.06
2022-09-23T05:07:03.278Z,4.88
2022-09-23T05:09:31.184Z,4.69
2022-09-23T05:11:58.403Z,4.94
2022-09-23T05:17:06.818Z,4.94
2022-09-23T05:19:33.990Z,5.00
2022-09-23T05:22:01.198Z,5.19
2022-09-23T05:24:28.413Z,5.00
2022-09-23T05:26:56.271Z,5.13
2022-09-23T05:29:23.461Z,5.25
2022-09-23T05:31:50.751Z,5.31
2022-09-23T05:34:18.781Z,5.31
2022-09-23T05:36:45.945Z,5.25
2022-09-23T05:39:13.083Z,5.25
2022-09-23T05:41:43.505Z,5.44
2022-09-23T05:44:10.849Z,5.19
2022-09-23T05:46:38.162Z,5.38
2022-09-23T05:49:06.258Z,5.50
2022-09-23T05:51:35.808Z,5.38
2022-09-23T05:54:04.365Z,5.56
2022-09-23T05:56:33.564Z,5.50
2022-09-23T05:59:02.516Z,5.56
2022-09-23T06:01:34.216Z,5.38
2022-09-23T06:04:05.070Z,5.44
2022-09-23T06:06:40.154Z,5.00
2022-09-23T06:09:11.713Z,5.31
2022-09-23T06:11:38.914Z,5.50
2022-09-23T06:14:06.760Z,5.56
2022-09-23T06:16:36.174Z,5.50
2022-09-23T06:19:07.680Z,5.69
2022-09-23T06:21:38.075Z,5.69
2022-09-23T06:24:07.081Z,5.81
2022-09-23T06:26:36.421Z,5.63
2022-09-23T06:29:09.859Z,5.88
2022-09-23T06:31:37.254Z,5.75
2022-09-23T06:34:11.939Z,5.25
2022-09-23T06:36:45.438Z,5.63
2022-09-23T06:39:15.126Z,5.75
2022-09-23T06:41:42.788Z,5.81
2022-09-23T06:44:10.043Z,6.06
2022-09-23T06:46:37.337Z,6.19
2022-09-23T06:49:04.694Z,6.06
2022-09-23T06:51:32.146Z,5.88
2022-09-23T06:53:59.428Z,6.19
2022-09-23T06:56:26.621Z,6.56
2022-09-23T06:58:54.723Z,6.69
2022-09-23T07:01:22.924Z,6.75
2022-09-23T07:03:50.440Z,6.81
2022-09-23T07:06:18.163Z,6.75
2022-09-23T07:08:51.321Z,6.69
2022-09-23T07:11:22.488Z,6.88
2022-09-23T07:13:49.769Z,7.00
2022-09-23T07:16:17.105Z,7.00
2022-09-23T07:18:45.154Z,7.13
2022-09-23T07:21:16.096Z,6.81
2022-09-23T07:23:50.082Z,7.38
2022-09-23T07:26:19.163Z,7.44
2022-09-23T07:28:46.528Z,7.56
2022-09-23T07:31:27.288Z,7.56
2022-09-23T07:34:02.724Z,7.44
2022-09-23T07:36:37.514Z,7.38
2022-09-23T07:39:05.310Z,7.38
2022-09-23T07:41:34.558Z,7.38
2022-09-23T07:44:03.223Z,7.56
2022-09-23T07:46:34.037Z,7.63
2022-09-23T07:49:03.241Z,7.63
2022-09-23T07:51:37.003Z,8.06
2022-09-23T07:54:08.410Z,8.19
2022-09-23T07:56:36.918Z,7.94
2022-09-23T07:59:08.641Z,8.44
2022-09-23T08:01:44.258Z,8.88
2022-09-23T08:04:30.589Z,9.31
2022-09-23T08:07:02.311Z,9.38
2022-09-23T08:09:34.057Z,9.25
2022-09-23T08:12:02.006Z,9.44
2022-09-23T08:14:29.223Z,9.81
2022-09-23T08:16:56.918Z,10.00
2022-09-23T08:19:24.210Z,10.00
2022-09-23T08:21:52.289Z,9.81
2022-09-23T08:24:24.402Z,10.06
2022-09-23T08:26:55.923Z,10.13
2022-09-23T08:29:25.255Z,10.31
2022-09-23T08:31:54.010Z,10.38
2022-09-23T08:34:23.769Z,10.50
2022-09-23T08:36:52.452Z,10.63
2022-09-23T08:39:21.183Z,10.63
2022-09-23T08:41:58.554Z,10.88
2022-09-23T08:44:38.756Z,11.38
2022-09-23T08:47:29.756Z,11.31
2022-09-23T08:50:25.010Z,11.69
2022-09-23T08:53:27.740Z,12.13
2022-09-23T08:55:59.343Z,12.00
2022-09-23T08:58:50.802Z,11.94
2022-09-23T09:01:29.574Z,11.81
2022-09-23T09:04:32.552Z,12.19
2022-09-23T09:07:36.298Z,12.50
2022-09-23T09:10:09.533Z,12.63
2022-09-23T09:12:45.348Z,12.56
2022-09-23T09:15:24.662Z,12.56
2022-09-23T09:18:21.960Z,12.63
2022-09-23T09:21:08.587Z,13.00
2022-09-23T09:23:44.385Z,13.19
2022-09-23T09:26:33.808Z,13.06
2022-09-23T09:29:34.293Z,13.19
2022-09-23T09:32:24.979Z,13.56
2022-09-23T09:34:58.698Z,13.44
2022-09-23T09:37:46.831Z,13.25
2022-09-23T09:40:17.146Z,13.19
2022-09-23T09:42:49.552Z,13.75
2022-09-23T09:45:28.945Z,13.25
2022-09-23T09:48:50.322Z,13.50
2022-09-23T09:51:22.933Z,13.81
2022-09-23T09:53:55.057Z,13.69
2022-09-23T09:56:34.788Z,13.69
2022-09-23T09:59:11.499Z,13.75
2022-09-23T10:01:39.264Z,13.69
2022-09-23T10:04:29.897Z,13.88
2022-09-23T10:07:15.948Z,13.94
2022-09-23T10:09:51.174Z,14.06
2022-09-23T10:12:21.881Z,13.81
2022-09-23T10:15:00.972Z,13.44
2022-09-23T10:17:35.424Z,13.94
2022-09-23T10:20:14.831Z,13.81
2022-09-23T10:22:43.309Z,13.63
2022-09-23T10:25:20.768Z,13.88
2022-09-23T10:27:47.993Z,13.88
2022-09-23T10:30:29.055Z,13.94
2022-09-23T10:32:57.261Z,14.06
2022-09-23T10:35:26.625Z,14.13
2022-09-23T10:37:55.478Z,14.06
2022-09-23T10:40:56.265Z,14.00
2022-09-23T10:44:17.183Z,13.94
2022-09-23T10:47:20.807Z,14.06
2022-09-23T10:50:13.373Z,13.88
2022-09-23T10:53:11.767Z,13.94
2022-09-23T10:55:43.912Z,14.19
2022-09-23T10:58:41.732Z,14.25
2022-09-23T11:01:50.204Z,14.50
2022-09-23T11:04:37.520Z,14.19
2022-09-23T11:07:37.282Z,14.00
2022-09-23T11:10:46.659Z,14.25
2022-09-23T11:13:20.164Z,14.13
2022-09-23T11:16:11.355Z,14.19
2022-09-23T11:19:23.630Z,14.19
2022-09-23T11:22:02.047Z,14.19
2022-09-23T11:25:02.228Z,14.31
2022-09-23T11:28:18.203Z,14.38
2022-09-23T11:30:57.030Z,14.50
2022-09-23T11:34:09.979Z,14.38
2022-09-23T11:36:53.602Z,14.44
2022-09-23T11:39:31.325Z,14.44
2022-09-23T11:42:02.431Z,14.31
2022-09-23T11:44:55.319Z,14.31
2022-09-23T11:47:30.672Z,14.38
2022-09-23T11:50:12.533Z,14.69
2022-09-23T11:53:12.664Z,14.56
2022-09-23T11:56:03.720Z,14.50
2022-09-23T11:58:53.989Z,14.38
2022-09-23T12:01:46.674Z,14.38
2022-09-23T12:04:51.245Z,14.50
2022-09-23T12:07:39.668Z,14.69
2022-09-23T12:10:09.463Z,14.75
2022-09-23T12:13:10.910Z,14.69
2022-09-23T12:16:49.101Z,14.63
2022-09-23T12:20:05.807Z,14.50
2022-09-23T12:22:57.940Z,14.69
2022-09-23T12:25:48.089Z,15.00
2022-09-23T12:28:24.604Z,14.94
2022-09-23T12:30:56.947Z,15.00
2022-09-23T12:33:28.494Z,15.06
2022-09-23T12:36:05.062Z,15.00
2022-09-23T12:39:03.482Z,15.06
2022-09-23T12:41:51.816Z,15.00
2022-09-23T12:44:42.314Z,15.19
2022-09-23T12:47:15.319Z,15.19
2022-09-23T12:49:44.378Z,15.13
2022-09-23T12:52:11.452Z,15.00
2022-09-23T12:54:46.371Z,15.25
2022-09-23T12:57:34.246Z,15.19
2022-09-23T13:00:11.316Z,15.25
2022-09-23T13:02:47.636Z,15.50
2022-09-23T13:05:39.839Z,15.50
2022-09-23T13:08:18.742Z,15.44
2022-09-23T13:10:55.401Z,15.38
2022-09-23T13:13:36.354Z,15.50
2022-09-23T13:16:22.841Z,15.38
2022-09-23T13:18:55.491Z,15.06
2022-09-23T13:21:47.332Z,15.19
2022-09-23T13:24:14.549Z,15.25
2022-09-23T13:27:19.197Z,15.06
2022-09-23T13:30:25.035Z,14.94
2022-09-23T13:38:37.839Z,14.81
2022-09-23T13:41:22.469Z,14.75
2022-09-23T13:43:53.935Z,14.69
2022-09-23T13:46:24.601Z,14.75
2022-09-23T13:48:54.887Z,14.50
2022-09-23T13:51:35.157Z,14.63
2022-09-23T13:54:05.257Z,14.50
2022-09-23T13:56:35.344Z,14.63
2022-09-23T13:59:25.744Z,14.56
2022-09-23T14:02:45.528Z,14.50
2022-09-23T14:05:21.796Z,14.63
2022-09-23T14:07:51.012Z,14.56
2022-09-23T14:10:24.127Z,14.50
2022-09-23T14:12:53.523Z,14.63
2022-09-23T14:15:21.889Z,14.63
2022-09-23T14:18:01.535Z,14.63
2022-09-23T14:20:28.854Z,14.69
2022-09-23T14:23:14.732Z,14.69
2022-09-23T14:25:47.304Z,14.69
2022-09-23T14:28:21.553Z,14.69
2022-09-23T14:30:51.998Z,14.69
2022-09-23T14:33:32.513Z,14.56
2022-09-23T14:36:32.125Z,14.56
2022-09-23T14:39:10.579Z,14.56
2022-09-23T14:41:41.583Z,14.56
2022-09-23T14:44:22.253Z,14.50
2022-09-23T14:46:59.127Z,14.44
2022-09-23T14:49:27.184Z,14.56
2022-09-23T14:51:58.654Z,14.44
2022-09-23T14:54:47.523Z,14.50
2022-09-23T14:57:23.931Z,14.38
2022-09-23T15:00:13.327Z,14.44
2022-09-23T15:02:45.364Z,14.56
2022-09-23T15:05:20.715Z,14.56
2022-09-23T15:07:51.685Z,14.56
2022-09-23T15:10:33.885Z,14.50
2022-09-23T15:13:20.004Z,14.25
2022-09-23T15:15:47.697Z,14.31
2022-09-23T15:18:22.623Z,14.38
2022-09-23T15:21:23.254Z,14.38
2022-09-23T15:23:54.802Z,14.31
2022-09-23T15:26:48.702Z,14.44
2022-09-23T15:29:16.100Z,14.44
2022-09-23T15:31:43.468Z,14.38
2022-09-23T15:34:11.583Z,14.31
2022-09-23T15:36:38.793Z,14.38
2022-09-23T15:39:08.798Z,14.38
2022-09-23T15:41:35.944Z,14.44
2022-09-23T15:44:16.348Z,14.31
2022-09-23T15:46:50.016Z,14.38
2022-09-23T15:49:36.872Z,14.38
2022-09-23T15:52:09.739Z,14.31
2022-09-23T15:54:37.977Z,14.19
2022-09-23T15:57:05.383Z,14.00
2022-09-23T15:59:33.008Z,13.88
2022-09-23T16:02:06.775Z,13.69
2022-09-23T16:04:35.002Z,13.56
2022-09-23T16:07:04.534Z,13.44
2022-09-23T16:09:31.747Z,13.38
2022-09-23T16:12:03.372Z,13.06
2022-09-23T16:14:30.565Z,12.94
2022-09-23T16:16:57.827Z,12.75
2022-09-23T16:19:25.744Z,12.81
2022-09-23T16:21:52.939Z,12.69
2022-09-23T16:24:22.603Z,12.56
2022-09-23T16:26:53.196Z,12.50
2022-09-23T16:29:20.394Z,12.38
2022-09-23T16:31:47.586Z,12.31
2022-09-23T16:34:14.754Z,12.25
2022-09-23T16:36:44.250Z,12.00
2022-09-23T16:39:13.642Z,12.06
2022-09-23T16:41:42.869Z,12.06
2022-09-23T16:44:12.468Z,11.94
2022-09-23T16:46:42.882Z,11.88
2022-09-23T16:49:12.169Z,11.63
2022-09-23T16:51:40.333Z,11.63
2022-09-23T16:54:11.460Z,11.44
2022-09-23T16:56:44.317Z,11.25
2022-09-23T16:59:13.561Z,11.44
2022-09-23T17:02:00.051Z,11.44
2022-09-23T17:04:30.467Z,11.44
2022-09-23T17:06:57.777Z,11.44
2022-09-23T17:09:28.943Z,11.13
2022-09-23T17:12:00.296Z,11.13
2022-09-23T17:14:31.581Z,11.00
2022-09-23T17:16:59.305Z,10.88
2022-09-23T17:19:26.550Z,11.00
2022-09-23T17:21:54.403Z,10.69
2022-09-23T17:24:21.758Z,10.81
2022-09-23T17:26:52.832Z,10.75
2022-09-23T17:29:20.719Z,10.88
2022-09-23T17:31:47.937Z,10.75
2022-09-23T17:34:16.370Z,10.56
2022-09-23T17:36:43.607Z,10.31
2022-09-23T17:39:11.130Z,10.19
2022-09-23T17:41:39.319Z,10.06
2022-09-23T17:44:08.088Z,10.25
2022-09-23T17:46:35.207Z,10.31
2022-09-23T17:49:04.052Z,10.31
2022-09-23T17:51:31.317Z,10.25
2022-09-23T17:53:58.507Z,9.94
2022-09-23T17:56:27.159Z,10.00
2022-09-23T17:58:54.843Z,10.25
2022-09-23T18:01:25.937Z,10.13
2022-09-23T18:03:59.719Z,10.13
2022-09-23T18:06:33.676Z,9.94
2022-09-23T18:09:04.290Z,10.00
2022-09-23T18:11:35.871Z,10.13
2022-09-23T18:14:20.485Z,9.94
2022-09-23T18:16:53.665Z,10.06
2022-09-23T18:19:23.313Z,10.06
2022-09-23T18:21:56.418Z,9.88
2022-09-23T18:24:33.387Z,9.69
2022-09-23T18:27:01.797Z,9.75
2022-09-23T18:29:29.116Z,9.81
2022-09-23T18:31:56.680Z,9.56
2022-09-23T18:34:24.346Z,9.69
2022-09-23T18:36:51.863Z,9.75
2022-09-23T18:39:19.075Z,9.44
2022-09-23T18:41:46.282Z,9.56
2022-09-23T18:44:13.420Z,9.44
2022-09-23T18:46:40.625Z,9.44
2022-09-23T18:49:26.713Z,9.50
2022-09-23T18:51:57.195Z,9.44
2022-09-23T18:54:27.733Z,9.38
2022-09-23T18:56:55.965Z,9.38
2022-09-23T18:59:27.905Z,9.56
2022-09-23T19:01:55.847Z,9.44
2022-09-23T19:04:26.308Z,9.31
2022-09-23T19:06:56.508Z,9.50
2022-09-23T19:09:23.963Z,9.44
2022-09-23T19:11:52.601Z,9.44
2022-09-23T19:14:20.558Z,9.44
2022-09-23T19:16:50.877Z,9.19
2022-09-23T19:19:18.249Z,9.13
2022-09-23T19:21:45.546Z,9.19
2022-09-23T19:24:16.177Z,9.06
2022-09-23T19:26:44.548Z,9.06
2022-09-23T19:29:17.076Z,9.19
2022-09-23T19:31:44.546Z,9.00
2022-09-23T19:34:18.880Z,9.06
2022-09-23T19:36:47.169Z,9.00
2022-09-23T19:39:18.295Z,8.94
2022-09-23T19:41:46.897Z,8.81
2022-09-23T19:44:15.231Z,8.81
2022-09-23T19:46:45.443Z,8.88
2022-09-23T19:49:13.353Z,8.75
2022-09-23T19:51:40.997Z,8.88
2022-09-23T19:54:09.172Z,8.75
2022-09-23T19:56:37.650Z,8.81
2022-09-23T19:59:08.720Z,8.75
2022-09-23T20:01:36.262Z,8.69
2022-09-23T20:04:03.699Z,8.50
2022-09-23T20:06:34.039Z,8.31
2022-09-23T20:09:01.834Z,8.31
2022-09-23T20:11:29.878Z,8.50
2022-09-23T20:14:04.901Z,8.50
2022-09-23T20:16:37.263Z,8.50
2022-09-23T20:19:05.764Z,8.44
2022-09-23T20:21:33.910Z,8.25
2022-09-23T20:24:02.004Z,8.31
2022-09-23T20:26:47.614Z,8.44
2022-09-23T20:29:14.989Z,8.44
2022-09-23T20:31:42.289Z,8.31
2022-09-23T20:34:10.342Z,8.19
2022-09-23T20:36:38.099Z,8.38
2022-09-23T20:39:06.578Z,8.25
2022-09-23T20:41:37.844Z,8.25
2022-09-23T20:44:09.752Z,8.13
2022-09-23T20:46:37.036Z,8.38
2022-09-23T20:49:08.752Z,8.25
2022-09-23T20:51:37.258Z,8.25
2022-09-23T20:54:04.879Z,8.13
2022-09-23T20:56:32.384Z,8.13
2022-09-23T20:59:05.353Z,8.13
2022-09-23T21:01:36.989Z,8.13
2022-09-23T21:04:05.971Z,8.00
2022-09-23T21:06:37.481Z,8.19
2022-09-23T21:09:06.112Z,7.94
2022-09-23T21:11:33.991Z,8.00
2022-09-23T21:14:02.165Z,7.75
2022-09-23T21:16:30.024Z,7.75
2022-09-23T21:18:57.688Z,7.81
2022-09-23T21:21:25.010Z,7.63
2022-09-23T21:23:52.625Z,7.69
2022-09-23T21:26:25.490Z,7.69
2022-09-23T21:29:15.565Z,7.81
2022-09-23T21:37:17.687Z,7.69
2022-09-23T21:40:04.925Z,7.56
2022-09-23T21:42:32.208Z,7.50
2022-09-23T21:44:59.374Z,7.63
2022-09-23T21:47:26.579Z,7.44
2022-09-23T21:49:53.739Z,7.50
2022-09-23T21:52:20.928Z,7.56
2022-09-23T21:54:48.111Z,7.38
2022-09-23T21:57:15.283Z,7.44
2022-09-23T21:59:42.419Z,7.44
2022-09-23T22:02:10.114Z,7.38
2022-09-23T22:04:37.311Z,7.25
2022-09-23T22:07:04.562Z,7.25
2022-09-23T22:09:31.688Z,7.38
2022-09-23T22:12:09.850Z,7.31
2022-09-23T22:14:38.964Z,7.06
2022-09-23T22:17:10.517Z,6.81
2022-09-23T22:19:44.311Z,7.25
2022-09-23T22:22:16.406Z,7.13
2022-09-23T22:24:45.958Z,6.88
2022-09-23T22:27:18.065Z,7.13
2022-09-23T22:30:03.690Z,7.25
2022-09-23T22:32:54.253Z,7.00
2022-09-23T22:35:22.276Z,6.88
2022-09-23T22:37:49.588Z,6.88
2022-09-23T22:40:17.038Z,6.69
2022-09-23T22:42:44.721Z,6.88
2022-09-23T22:45:13.022Z,6.69
2022-09-23T22:47:45.379Z,6.69
2022-09-23T22:50:14.407Z,6.81
2022-09-23T22:52:41.944Z,6.69
2022-09-23T22:55:09.736Z,6.94
2022-09-23T22:57:37.205Z,6.94
2022-09-23T23:00:09.451Z,6.88
2022-09-23T23:02:36.856Z,6.88
2022-09-23T23:05:04.289Z,6.81
2022-09-23T23:07:32.193Z,6.88
2022-09-23T23:09:59.385Z,7.00
2022-09-23T23:12:26.608Z,6.88
2022-09-23T23:14:53.833Z,6.88
2022-09-23T23:17:21.882Z,6.81
2022-09-23T23:19:50.631Z,6.94
2022-09-23T23:22:17.840Z,7.00
2022-09-23T23:24:45.106Z,6.81
2022-09-23T23:27:12.238Z,6.81
2022-09-23T23:29:39.485Z,6.75
2022-09-23T23:32:07.746Z,6.88
2022-09-23T23:34:34.931Z,6.69
2022-09-23T23:37:02.183Z,6.63
2022-09-23T23:39:29.387Z,6.75
2022-09-23T23:41:58.524Z,6.69
2022-09-23T23:44:27.144Z,6.50
2022-09-23T23:46:55.282Z,6.56
2022-09-23T23:49:22.659Z,6.69
2022-09-23T23:51:50.694Z,6.69
2022-09-23T23:54:17.994Z,6.75
2022-09-23T23:56:45.211Z,6.50
2022-09-23T23:59:13.413Z,6.81
